Elkhart, IN (46517)

1:21 AM EDT on September 29, 2016 (GMT -0400)
Sloat Farms North | | Change Station

Elev 810 ft 41.60 °N, 85.96 °W | Updated 7 minutes ago

Light Rain
Light Rain
55.5 °F
Feels Like 55.5 °F
N
3.0
Wind Variable Wind from NNE
Gusts 6.0 mph

Today
High -- | Low -- °F
--% Chance of Precip.
Yesterday
High -- | Low -- °F
Precip. -- in
Pressure 29.99 in
Visibility 7.0 miles
Clouds Few 900 ft
Mostly Cloudy 2500 ft
Overcast 3000 ft
Dew Point 54 °F
Humidity 95%
Rainfall 0.07 in
Snow Depth Not available.
7:39 AM 7:28 PM
Waning Crescent, 3% visible
SPECI KGSH 290513Z AUTO 03006KT 7SM -RA FEW009 BKN025 OVC030 13/12 A2999 RMK AO2 RAB0454 P0001 T01330117
Pressure 29.99 in
Visibility 7.0 miles
Clouds Few 900 ft
Mostly Cloudy 2500 ft
Overcast 3000 ft
Dew Point 54 °F
Humidity 95%
Rainfall 0.07 in
Snow Depth Not available.
7:39 AM 7:28 PM
Waning Crescent, 3% visible
SPECI KGSH 290513Z AUTO 03006KT 7SM -RA FEW009 BKN025 OVC030 13/12 A2999 RMK AO2 RAB0454 P0001 T01330117

10-Day Weather Forecast

Almanac

Astronomy

Sep. 29, 2016 Rise Set
Actual Time
Civil Twilight
Nautical Twilight
Astronomical Twilight
Moon
Length of Visible Light
Length of Day
Tomorrow will be .
, % of the Moon is Illuminated

Today's Extremes

State Highs State Lows

Community

WunderPhotos

Upload Photos

1,942,444 photos uploaded!

WunderBlog® & News

Nearby

Air Quality

  Air Quality AQ Index Pollutant
Not available.

Snow Depth

Station Depth Elevation

Earthquake Activity

City Distance Mag. Time & Date
Minimum magnitude displayed is 2.5.

Coastal Water Temperatures

Place Temperature

Stations

Nearby Weather Stations

Station Location Temp. Windchill Dew Point Humidity Wind Precip. Elev Updated Type
                   

Watches & Warnings

There are currently no watches in effect.